sensor_id;sensor_type;location;lat;lon;timestamp;temperature;humidity
39219;DHT22;24934;52.752;6.964;2023-07-31T00:00:27;15.00;99.90
39219;DHT22;24934;52.752;6.964;2023-07-31T00:02:53;15.00;99.90
39219;DHT22;24934;52.752;6.964;2023-07-31T00:05:19;15.00;99.90
39219;DHT22;24934;52.752;6.964;2023-07-31T00:07:45;14.90;99.90
39219;DHT22;24934;52.752;6.964;2023-07-31T00:10:10;14.90;99.90
39219;DHT22;24934;52.752;6.964;2023-07-31T00:12:41;14.90;99.90
39219;DHT22;24934;52.752;6.964;2023-07-31T00:15:07;14.90;99.90
39219;DHT22;24934;52.752;6.964;2023-07-31T00:17:33;14.90;99.90
39219;DHT22;24934;52.752;6.964;2023-07-31T00:19:58;14.90;99.90
39219;DHT22;24934;52.752;6.964;2023-07-31T00:22:27;14.90;99.90
39219;DHT22;24934;52.752;6.964;2023-07-31T00:24:53;14.90;99.90
39219;DHT22;24934;52.752;6.964;2023-07-31T00:27:19;14.90;99.90
39219;DHT22;24934;52.752;6.964;2023-07-31T00:29:44;14.80;99.90
39219;DHT22;24934;52.752;6.964;2023-07-31T00:32:10;14.80;99.90
39219;DHT22;24934;52.752;6.964;2023-07-31T00:34:35;14.80;99.90
39219;DHT22;24934;52.752;6.964;2023-07-31T00:37:01;14.80;99.90
39219;DHT22;24934;52.752;6.964;2023-07-31T00:39:27;14.80;99.90
39219;DHT22;24934;52.752;6.964;2023-07-31T00:41:52;14.80;99.90
39219;DHT22;24934;52.752;6.964;2023-07-31T00:44:18;14.80;99.90
39219;DHT22;24934;52.752;6.964;2023-07-31T00:46:44;14.80;99.90
39219;DHT22;24934;52.752;6.964;2023-07-31T00:49:12;14.80;99.90
39219;DHT22;24934;52.752;6.964;2023-07-31T00:51:38;14.80;99.90
39219;DHT22;24934;52.752;6.964;2023-07-31T00:54:04;14.80;99.90
39219;DHT22;24934;52.752;6.964;2023-07-31T00:56:31;14.80;99.90
39219;DHT22;24934;52.752;6.964;2023-07-31T00:58:56;14.70;99.90
39219;DHT22;24934;52.752;6.964;2023-07-31T01:01:22;14.70;99.90
39219;DHT22;24934;52.752;6.964;2023-07-31T01:03:48;14.70;99.90
39219;DHT22;24934;52.752;6.964;2023-07-31T01:11:57;14.70;99.90
39219;DHT22;24934;52.752;6.964;2023-07-31T01:14:25;14.70;99.90
39219;DHT22;24934;52.752;6.964;2023-07-31T01:16:51;14.70;99.90
39219;DHT22;24934;52.752;6.964;2023-07-31T01:19:19;14.60;99.90
39219;DHT22;24934;52.752;6.964;2023-07-31T01:22:29;14.60;99.90
39219;DHT22;24934;52.752;6.964;2023-07-31T01:27:47;14.60;99.90
39219;DHT22;24934;52.752;6.964;2023-07-31T01:30:21;14.60;99.90
39219;DHT22;24934;52.752;6.964;2023-07-31T01:32:51;14.60;99.90
39219;DHT22;24934;52.752;6.964;2023-07-31T01:35:18;14.60;99.90
39219;DHT22;24934;52.752;6.964;2023-07-31T01:37:45;14.60;99.90
39219;DHT22;24934;52.752;6.964;2023-07-31T01:40:10;14.60;99.90
39219;DHT22;24934;52.752;6.964;2023-07-31T01:42:36;14.60;99.90
39219;DHT22;24934;52.752;6.964;2023-07-31T01:45:02;14.60;99.90
39219;DHT22;24934;52.752;6.964;2023-07-31T01:47:27;14.60;99.90
39219;DHT22;24934;52.752;6.964;2023-07-31T01:49:53;14.50;99.90
39219;DHT22;24934;52.752;6.964;2023-07-31T01:52:19;14.50;99.90
39219;DHT22;24934;52.752;6.964;2023-07-31T01:54:44;14.50;99.90
39219;DHT22;24934;52.752;6.964;2023-07-31T01:57:10;14.50;99.90
39219;DHT22;24934;52.752;6.964;2023-07-31T01:59:35;14.50;99.90
39219;DHT22;24934;52.752;6.964;2023-07-31T02:02:01;14.50;99.90
39219;DHT22;24934;52.752;6.964;2023-07-31T02:04:29;14.50;99.90
39219;DHT22;24934;52.752;6.964;2023-07-31T02:06:55;14.50;99.90
39219;DHT22;24934;52.752;6.964;2023-07-31T02:09:20;14.50;99.90
39219;DHT22;24934;52.752;6.964;2023-07-31T02:11:46;14.50;99.90
39219;DHT22;24934;52.752;6.964;2023-07-31T02:14:11;14.50;99.90
39219;DHT22;24934;52.752;6.964;2023-07-31T02:16:37;14.50;99.90
39219;DHT22;24934;52.752;6.964;2023-07-31T02:19:03;14.50;99.90
39219;DHT22;24934;52.752;6.964;2023-07-31T02:21:28;14.50;99.90
39219;DHT22;24934;52.752;6.964;2023-07-31T02:23:54;14.50;99.90
39219;DHT22;24934;52.752;6.964;2023-07-31T02:26:19;14.50;99.90
39219;DHT22;24934;52.752;6.964;2023-07-31T02:28:45;14.50;99.90
39219;DHT22;24934;52.752;6.964;2023-07-31T02:31:11;14.60;99.90
39219;DHT22;24934;52.752;6.964;2023-07-31T02:33:36;14.60;99.90
39219;DHT22;24934;52.752;6.964;2023-07-31T02:36:02;14.60;99.90
39219;DHT22;24934;52.752;6.964;2023-07-31T02:38:28;14.60;99.90
39219;DHT22;24934;52.752;6.964;2023-07-31T02:40:53;14.60;99.90
39219;DHT22;24934;52.752;6.964;2023-07-31T02:43:19;14.60;99.90
39219;DHT22;24934;52.752;6.964;2023-07-31T02:45:44;14.70;99.90
39219;DHT22;24934;52.752;6.964;2023-07-31T02:48:10;14.60;99.90
39219;DHT22;24934;52.752;6.964;2023-07-31T02:50:36;14.70;99.90
39219;DHT22;24934;52.752;6.964;2023-07-31T02:53:02;14.70;99.90
39219;DHT22;24934;52.752;6.964;2023-07-31T02:55:27;14.70;99.90
39219;DHT22;24934;52.752;6.964;2023-07-31T02:57:53;14.70;99.90
39219;DHT22;24934;52.752;6.964;2023-07-31T03:00:19;14.70;99.90
39219;DHT22;24934;52.752;6.964;2023-07-31T03:02:44;14.70;99.90
39219;DHT22;24934;52.752;6.964;2023-07-31T03:05:10;14.70;99.90
39219;DHT22;24934;52.752;6.964;2023-07-31T03:07:36;14.80;99.90
39219;DHT22;24934;52.752;6.964;2023-07-31T03:10:01;14.80;99.90
39219;DHT22;24934;52.752;6.964;2023-07-31T03:12:27;14.80;99.90
39219;DHT22;24934;52.752;6.964;2023-07-31T03:14:55;14.80;99.90
39219;DHT22;24934;52.752;6.964;2023-07-31T03:17:21;14.80;99.90
39219;DHT22;24934;52.752;6.964;2023-07-31T03:19:47;14.80;99.90
39219;DHT22;24934;52.752;6.964;2023-07-31T03:22:12;14.80;99.90
39219;DHT22;24934;52.752;6.964;2023-07-31T03:24:38;14.80;99.90
39219;DHT22;24934;52.752;6.964;2023-07-31T03:27:04;14.80;99.90
39219;DHT22;24934;52.752;6.964;2023-07-31T03:29:29;14.80;99.90
39219;DHT22;24934;52.752;6.964;2023-07-31T03:31:55;14.80;99.90
39219;DHT22;24934;52.752;6.964;2023-07-31T03:34:21;14.90;99.90
39219;DHT22;24934;52.752;6.964;2023-07-31T03:36:47;14.90;99.90
39219;DHT22;24934;52.752;6.964;2023-07-31T03:39:12;14.90;99.90
39219;DHT22;24934;52.752;6.964;2023-07-31T03:41:38;14.90;99.90
39219;DHT22;24934;52.752;6.964;2023-07-31T03:44:04;15.00;99.90
39219;DHT22;24934;52.752;6.964;2023-07-31T03:46:29;15.00;99.90
39219;DHT22;24934;52.752;6.964;2023-07-31T03:48:55;15.00;99.90
39219;DHT22;24934;52.752;6.964;2023-07-31T03:51:21;15.00;99.90
39219;DHT22;24934;52.752;6.964;2023-07-31T03:53:46;15.00;99.90
39219;DHT22;24934;52.752;6.964;2023-07-31T03:56:13;15.00;99.90
39219;DHT22;24934;52.752;6.964;2023-07-31T03:58:39;15.00;99.90
39219;DHT22;24934;52.752;6.964;2023-07-31T04:01:05;15.00;99.90
39219;DHT22;24934;52.752;6.964;2023-07-31T04:03:31;15.10;99.90
39219;DHT22;24934;52.752;6.964;2023-07-31T04:05:57;15.10;99.90
39219;DHT22;24934;52.752;6.964;2023-07-31T04:08:23;15.10;99.90
39219;DHT22;24934;52.752;6.964;2023-07-31T04:10:49;15.10;99.90
39219;DHT22;24934;52.752;6.964;2023-07-31T04:13:14;15.10;99.90
39219;DHT22;24934;52.752;6.964;2023-07-31T04:15:40;15.10;99.90
39219;DHT22;24934;52.752;6.964;2023-07-31T04:18:06;15.20;99.90
39219;DHT22;24934;52.752;6.964;2023-07-31T04:20:32;15.20;99.90
39219;DHT22;24934;52.752;6.964;2023-07-31T04:22:58;15.20;99.90
39219;DHT22;24934;52.752;6.964;2023-07-31T04:25:23;15.20;99.90
39219;DHT22;24934;52.752;6.964;2023-07-31T04:27:49;15.30;99.90
39219;DHT22;24934;52.752;6.964;2023-07-31T04:30:15;15.20;99.90
39219;DHT22;24934;52.752;6.964;2023-07-31T04:32:40;15.30;99.90
39219;DHT22;24934;52.752;6.964;2023-07-31T04:35:06;15.30;99.90
39219;DHT22;24934;52.752;6.964;2023-07-31T04:37:32;15.30;99.90
39219;DHT22;24934;52.752;6.964;2023-07-31T04:39:58;15.30;99.90
39219;DHT22;24934;52.752;6.964;2023-07-31T04:42:23;15.30;99.90
39219;DHT22;24934;52.752;6.964;2023-07-31T04:44:49;15.30;99.90
39219;DHT22;24934;52.752;6.964;2023-07-31T04:47:15;15.30;99.90
39219;DHT22;24934;52.752;6.964;2023-07-31T04:49:40;15.30;99.90
39219;DHT22;24934;52.752;6.964;2023-07-31T04:52:06;15.30;99.90
39219;DHT22;24934;52.752;6.964;2023-07-31T04:54:32;15.40;99.90
39219;DHT22;24934;52.752;6.964;2023-07-31T04:56:57;15.40;99.90
39219;DHT22;24934;52.752;6.964;2023-07-31T04:59:23;15.40;99.90
39219;DHT22;24934;52.752;6.964;2023-07-31T05:01:49;15.40;99.90
39219;DHT22;24934;52.752;6.964;2023-07-31T05:04:15;15.40;99.90
39219;DHT22;24934;52.752;6.964;2023-07-31T05:06:41;15.50;99.90
39219;DHT22;24934;52.752;6.964;2023-07-31T05:09:07;15.50;99.90
39219;DHT22;24934;52.752;6.964;2023-07-31T05:11:34;15.50;99.90
39219;DHT22;24934;52.752;6.964;2023-07-31T05:14:00;15.60;99.90
39219;DHT22;24934;52.752;6.964;2023-07-31T05:16:26;15.60;99.90
39219;DHT22;24934;52.752;6.964;2023-07-31T05:18:51;15.60;99.90
39219;DHT22;24934;52.752;6.964;2023-07-31T05:21:17;15.60;99.90
39219;DHT22;24934;52.752;6.964;2023-07-31T05:23:43;15.60;99.90
39219;DHT22;24934;52.752;6.964;2023-07-31T05:26:08;15.60;99.90
39219;DHT22;24934;52.752;6.964;2023-07-31T05:28:37;15.70;99.90
39219;DHT22;24934;52.752;6.964;2023-07-31T05:31:04;15.70;99.90
39219;DHT22;24934;52.752;6.964;2023-07-31T05:33:30;15.70;99.90
39219;DHT22;24934;52.752;6.964;2023-07-31T05:35:56;15.80;99.90
39219;DHT22;24934;52.752;6.964;2023-07-31T05:38:22;15.80;99.90
39219;DHT22;24934;52.752;6.964;2023-07-31T05:40:48;15.80;99.90
39219;DHT22;24934;52.752;6.964;2023-07-31T05:43:14;15.80;99.90
39219;DHT22;24934;52.752;6.964;2023-07-31T05:45:41;15.80;99.90
39219;DHT22;24934;52.752;6.964;2023-07-31T05:48:07;15.80;99.90
39219;DHT22;24934;52.752;6.964;2023-07-31T05:50:32;15.80;99.90
39219;DHT22;24934;52.752;6.964;2023-07-31T05:52:58;15.80;99.90
39219;DHT22;24934;52.752;6.964;2023-07-31T05:55:24;15.80;99.90
39219;DHT22;24934;52.752;6.964;2023-07-31T05:57:52;15.90;99.90
39219;DHT22;24934;52.752;6.964;2023-07-31T06:00:18;15.80;99.90
39219;DHT22;24934;52.752;6.964;2023-07-31T06:02:44;15.80;99.90
39219;DHT22;24934;52.752;6.964;2023-07-31T06:05:09;15.80;99.90
39219;DHT22;24934;52.752;6.964;2023-07-31T06:07:35;15.80;99.90
39219;DHT22;24934;52.752;6.964;2023-07-31T06:10:01;15.80;99.90
39219;DHT22;24934;52.752;6.964;2023-07-31T06:12:33;15.80;99.90
39219;DHT22;24934;52.752;6.964;2023-07-31T06:14:59;15.90;99.90
39219;DHT22;24934;52.752;6.964;2023-07-31T06:17:25;15.90;99.90
39219;DHT22;24934;52.752;6.964;2023-07-31T06:19:51;16.00;99.90
39219;DHT22;24934;52.752;6.964;2023-07-31T06:22:17;16.00;99.90
39219;DHT22;24934;52.752;6.964;2023-07-31T06:24:43;16.00;99.90
39219;DHT22;24934;52.752;6.964;2023-07-31T06:27:09;16.00;99.90
39219;DHT22;24934;52.752;6.964;2023-07-31T06:29:35;16.00;99.90
39219;DHT22;24934;52.752;6.964;2023-07-31T06:32:00;16.00;99.90
39219;DHT22;24934;52.752;6.964;2023-07-31T06:34:26;16.00;99.90
39219;DHT22;24934;52.752;6.964;2023-07-31T06:36:52;16.00;99.90
39219;DHT22;24934;52.752;6.964;2023-07-31T06:39:17;16.00;99.90
39219;DHT22;24934;52.752;6.964;2023-07-31T06:41:43;16.00;99.90
39219;DHT22;24934;52.752;6.964;2023-07-31T06:44:09;16.00;99.90
39219;DHT22;24934;52.752;6.964;2023-07-31T06:46:35;16.00;99.90
39219;DHT22;24934;52.752;6.964;2023-07-31T06:49:00;16.00;99.90
39219;DHT22;24934;52.752;6.964;2023-07-31T06:51:26;16.00;99.90
39219;DHT22;24934;52.752;6.964;2023-07-31T06:53:52;16.00;99.90
39219;DHT22;24934;52.752;6.964;2023-07-31T06:56:17;16.00;99.90
39219;DHT22;24934;52.752;6.964;2023-07-31T06:58:45;16.00;99.90
39219;DHT22;24934;52.752;6.964;2023-07-31T07:01:14;16.00;99.90
39219;DHT22;24934;52.752;6.964;2023-07-31T07:03:39;16.00;99.90
39219;DHT22;24934;52.752;6.964;2023-07-31T07:06:05;16.00;99.90
39219;DHT22;24934;52.752;6.964;2023-07-31T07:08:31;15.90;99.90
39219;DHT22;24934;52.752;6.964;2023-07-31T07:10:57;15.90;99.90
39219;DHT22;24934;52.752;6.964;2023-07-31T07:13:22;15.90;99.90
39219;DHT22;24934;52.752;6.964;2023-07-31T07:15:49;15.80;99.90
39219;DHT22;24934;52.752;6.964;2023-07-31T07:18:15;15.90;99.90
39219;DHT22;24934;52.752;6.964;2023-07-31T07:20:46;15.90;99.90
39219;DHT22;24934;52.752;6.964;2023-07-31T07:23:11;15.80;99.90
39219;DHT22;24934;52.752;6.964;2023-07-31T07:25:38;15.80;99.90
39219;DHT22;24934;52.752;6.964;2023-07-31T07:28:03;15.80;99.90
39219;DHT22;24934;52.752;6.964;2023-07-31T07:30:29;15.90;99.90
39219;DHT22;24934;52.752;6.964;2023-07-31T07:32:55;16.00;99.90
39219;DHT22;24934;52.752;6.964;2023-07-31T07:35:20;16.00;99.90
39219;DHT22;24934;52.752;6.964;2023-07-31T07:37:48;16.00;99.90
39219;DHT22;24934;52.752;6.964;2023-07-31T07:40:15;16.00;99.90
39219;DHT22;24934;52.752;6.964;2023-07-31T07:42:41;16.00;99.90
39219;DHT22;24934;52.752;6.964;2023-07-31T07:45:07;16.00;99.90
39219;DHT22;24934;52.752;6.964;2023-07-31T07:47:33;16.00;99.90
39219;DHT22;24934;52.752;6.964;2023-07-31T07:49:59;16.00;99.90
39219;DHT22;24934;52.752;6.964;2023-07-31T07:52:24;15.90;99.90
39219;DHT22;24934;52.752;6.964;2023-07-31T07:54:50;15.90;99.90
39219;DHT22;24934;52.752;6.964;2023-07-31T07:57:16;15.90;99.90
39219;DHT22;24934;52.752;6.964;2023-07-31T07:59:42;16.00;99.90
39219;DHT22;24934;52.752;6.964;2023-07-31T08:02:07;16.00;99.90
39219;DHT22;24934;52.752;6.964;2023-07-31T08:04:33;16.00;99.90
39219;DHT22;24934;52.752;6.964;2023-07-31T08:06:59;16.00;99.90
39219;DHT22;24934;52.752;6.964;2023-07-31T08:09:24;16.00;99.90
39219;DHT22;24934;52.752;6.964;2023-07-31T08:11:50;16.10;99.90
39219;DHT22;24934;52.752;6.964;2023-07-31T08:14:16;16.10;99.90
39219;DHT22;24934;52.752;6.964;2023-07-31T08:16:42;16.20;99.90
39219;DHT22;24934;52.752;6.964;2023-07-31T08:19:07;16.20;99.90
39219;DHT22;24934;52.752;6.964;2023-07-31T08:21:33;16.20;99.90
39219;DHT22;24934;52.752;6.964;2023-07-31T08:23:58;16.30;99.90
39219;DHT22;24934;52.752;6.964;2023-07-31T08:26:24;16.30;99.90
39219;DHT22;24934;52.752;6.964;2023-07-31T08:28:50;16.30;99.90
39219;DHT22;24934;52.752;6.964;2023-07-31T08:31:15;16.30;99.90
39219;DHT22;24934;52.752;6.964;2023-07-31T08:33:41;16.40;99.90
39219;DHT22;24934;52.752;6.964;2023-07-31T08:36:07;16.30;99.90
39219;DHT22;24934;52.752;6.964;2023-07-31T08:38:32;16.40;99.90
39219;DHT22;24934;52.752;6.964;2023-07-31T08:40:58;16.40;99.90
39219;DHT22;24934;52.752;6.964;2023-07-31T08:43:27;16.40;99.90
39219;DHT22;24934;52.752;6.964;2023-07-31T08:45:53;16.40;99.90
39219;DHT22;24934;52.752;6.964;2023-07-31T08:48:22;16.40;99.90
39219;DHT22;24934;52.752;6.964;2023-07-31T08:50:48;16.40;99.90
39219;DHT22;24934;52.752;6.964;2023-07-31T08:53:16;16.50;99.90
39219;DHT22;24934;52.752;6.964;2023-07-31T08:55:43;16.50;99.90
39219;DHT22;24934;52.752;6.964;2023-07-31T08:58:10;16.60;99.90
39219;DHT22;24934;52.752;6.964;2023-07-31T09:00:38;16.70;99.90
39219;DHT22;24934;52.752;6.964;2023-07-31T09:03:24;16.80;99.90
39219;DHT22;24934;52.752;6.964;2023-07-31T09:05:51;16.90;99.90
39219;DHT22;24934;52.752;6.964;2023-07-31T09:08:21;16.80;99.90
39219;DHT22;24934;52.752;6.964;2023-07-31T09:10:48;16.90;99.90
39219;DHT22;24934;52.752;6.964;2023-07-31T09:13:17;16.80;99.90
39219;DHT22;24934;52.752;6.964;2023-07-31T09:15:45;16.80;99.90
39219;DHT22;24934;52.752;6.964;2023-07-31T09:18:11;16.90;99.90
39219;DHT22;24934;52.752;6.964;2023-07-31T09:20:37;17.00;99.90
39219;DHT22;24934;52.752;6.964;2023-07-31T09:23:07;17.10;99.90
39219;DHT22;24934;52.752;6.964;2023-07-31T09:25:33;17.10;99.90
39219;DHT22;24934;52.752;6.964;2023-07-31T09:28:07;17.10;99.90
39219;DHT22;24934;52.752;6.964;2023-07-31T09:30:45;17.10;99.90
39219;DHT22;24934;52.752;6.964;2023-07-31T09:33:12;17.10;99.90
39219;DHT22;24934;52.752;6.964;2023-07-31T09:35:37;17.10;99.90
39219;DHT22;24934;52.752;6.964;2023-07-31T09:38:08;17.10;99.90
39219;DHT22;24934;52.752;6.964;2023-07-31T09:40:39;17.20;99.90
39219;DHT22;24934;52.752;6.964;2023-07-31T09:43:07;17.20;99.90
39219;DHT22;24934;52.752;6.964;2023-07-31T09:45:43;17.20;99.90
39219;DHT22;24934;52.752;6.964;2023-07-31T09:48:14;17.20;99.90
39219;DHT22;24934;52.752;6.964;2023-07-31T09:50:46;17.30;99.90
39219;DHT22;24934;52.752;6.964;2023-07-31T09:53:12;17.30;99.90
39219;DHT22;24934;52.752;6.964;2023-07-31T09:55:39;17.30;99.90
39219;DHT22;24934;52.752;6.964;2023-07-31T09:58:07;17.40;99.90
39219;DHT22;24934;52.752;6.964;2023-07-31T10:00:34;17.40;99.90
39219;DHT22;24934;52.752;6.964;2023-07-31T10:03:02;17.30;99.90
39219;DHT22;24934;52.752;6.964;2023-07-31T10:05:34;17.30;99.90
39219;DHT22;24934;52.752;6.964;2023-07-31T10:08:00;17.30;99.90
39219;DHT22;24934;52.752;6.964;2023-07-31T10:10:27;17.30;99.90
39219;DHT22;24934;52.752;6.964;2023-07-31T10:12:54;17.30;99.90
39219;DHT22;24934;52.752;6.964;2023-07-31T10:15:20;17.40;99.90
39219;DHT22;24934;52.752;6.964;2023-07-31T10:17:50;17.50;99.90
39219;DHT22;24934;52.752;6.964;2023-07-31T10:20:16;17.50;99.90
39219;DHT22;24934;52.752;6.964;2023-07-31T10:22:43;17.50;99.90
39219;DHT22;24934;52.752;6.964;2023-07-31T10:25:09;17.70;99.90
39219;DHT22;24934;52.752;6.964;2023-07-31T10:27:36;17.70;99.90
39219;DHT22;24934;52.752;6.964;2023-07-31T10:30:04;17.70;99.90
39219;DHT22;24934;52.752;6.964;2023-07-31T10:32:31;17.70;99.90
39219;DHT22;24934;52.752;6.964;2023-07-31T10:34:58;17.70;99.90
39219;DHT22;24934;52.752;6.964;2023-07-31T10:37:27;17.70;99.90
39219;DHT22;24934;52.752;6.964;2023-07-31T10:42:38;18.00;99.90
39219;DHT22;24934;52.752;6.964;2023-07-31T10:45:09;18.10;99.90
39219;DHT22;24934;52.752;6.964;2023-07-31T10:47:45;18.20;99.90
39219;DHT22;24934;52.752;6.964;2023-07-31T10:50:21;18.10;99.90
39219;DHT22;24934;52.752;6.964;2023-07-31T10:52:48;18.10;99.90
39219;DHT22;24934;52.752;6.964;2023-07-31T10:55:25;18.20;99.90
39219;DHT22;24934;52.752;6.964;2023-07-31T10:57:57;18.20;99.90
39219;DHT22;24934;52.752;6.964;2023-07-31T11:00:28;18.30;99.90
39219;DHT22;24934;52.752;6.964;2023-07-31T11:03:01;18.30;99.90
39219;DHT22;24934;52.752;6.964;2023-07-31T11:05:50;18.60;99.90
39219;DHT22;24934;52.752;6.964;2023-07-31T11:10:46;18.70;99.90
39219;DHT22;24934;52.752;6.964;2023-07-31T11:13:13;19.00;99.90
39219;DHT22;24934;52.752;6.964;2023-07-31T11:15:39;19.10;99.90
39219;DHT22;24934;52.752;6.964;2023-07-31T11:18:04;18.90;99.90
39219;DHT22;24934;52.752;6.964;2023-07-31T11:20:32;18.80;99.90
39219;DHT22;24934;52.752;6.964;2023-07-31T11:23:06;18.70;99.90
39219;DHT22;24934;52.752;6.964;2023-07-31T11:25:32;18.90;99.90
39219;DHT22;24934;52.752;6.964;2023-07-31T11:28:03;18.90;99.90
39219;DHT22;24934;52.752;6.964;2023-07-31T11:30:29;18.90;99.90
39219;DHT22;24934;52.752;6.964;2023-07-31T11:32:55;18.80;99.90
39219;DHT22;24934;52.752;6.964;2023-07-31T11:35:23;18.70;99.90
39219;DHT22;24934;52.752;6.964;2023-07-31T11:37:49;18.70;99.90
39219;DHT22;24934;52.752;6.964;2023-07-31T11:40:15;19.00;99.90
39219;DHT22;24934;52.752;6.964;2023-07-31T11:42:41;19.10;99.90
39219;DHT22;24934;52.752;6.964;2023-07-31T11:45:09;18.90;99.90
39219;DHT22;24934;52.752;6.964;2023-07-31T11:47:37;18.90;99.90
39219;DHT22;24934;52.752;6.964;2023-07-31T11:50:04;18.90;99.90
39219;DHT22;24934;52.752;6.964;2023-07-31T11:52:34;19.00;99.90
39219;DHT22;24934;52.752;6.964;2023-07-31T11:55:02;19.10;99.90
39219;DHT22;24934;52.752;6.964;2023-07-31T11:57:28;19.10;99.90
39219;DHT22;24934;52.752;6.964;2023-07-31T11:59:55;19.00;99.90
39219;DHT22;24934;52.752;6.964;2023-07-31T12:02:22;18.90;99.90
39219;DHT22;24934;52.752;6.964;2023-07-31T12:04:48;18.90;99.90
39219;DHT22;24934;52.752;6.964;2023-07-31T12:07:13;18.80;99.90
39219;DHT22;24934;52.752;6.964;2023-07-31T12:09:55;18.70;99.90
39219;DHT22;24934;52.752;6.964;2023-07-31T12:12:22;18.50;99.90
39219;DHT22;24934;52.752;6.964;2023-07-31T12:14:48;18.50;99.90
39219;DHT22;24934;52.752;6.964;2023-07-31T12:17:14;18.40;99.90
39219;DHT22;24934;52.752;6.964;2023-07-31T12:19:40;18.50;99.90
39219;DHT22;24934;52.752;6.964;2023-07-31T12:22:13;18.60;99.90
39219;DHT22;24934;52.752;6.964;2023-07-31T12:24:41;18.70;99.90
39219;DHT22;24934;52.752;6.964;2023-07-31T12:27:14;18.80;99.90
39219;DHT22;24934;52.752;6.964;2023-07-31T12:29:41;18.70;99.90
39219;DHT22;24934;52.752;6.964;2023-07-31T12:32:24;18.70;99.90
39219;DHT22;24934;52.752;6.964;2023-07-31T12:34:54;18.60;99.90
39219;DHT22;24934;52.752;6.964;2023-07-31T12:37:23;18.60;99.90
39219;DHT22;24934;52.752;6.964;2023-07-31T12:39:48;18.60;99.90
39219;DHT22;24934;52.752;6.964;2023-07-31T12:42:17;18.60;99.90
39219;DHT22;24934;52.752;6.964;2023-07-31T12:44:42;18.60;99.90
39219;DHT22;24934;52.752;6.964;2023-07-31T12:47:08;18.60;99.90
39219;DHT22;24934;52.752;6.964;2023-07-31T12:49:34;18.50;99.90
39219;DHT22;24934;52.752;6.964;2023-07-31T12:51:59;18.50;99.90
39219;DHT22;24934;52.752;6.964;2023-07-31T12:54:25;18.40;99.90
39219;DHT22;24934;52.752;6.964;2023-07-31T12:56:51;18.40;99.90
39219;DHT22;24934;52.752;6.964;2023-07-31T12:59:16;18.50;99.90
39219;DHT22;24934;52.752;6.964;2023-07-31T13:01:42;18.30;99.90
39219;DHT22;24934;52.752;6.964;2023-07-31T13:04:07;18.30;99.90
39219;DHT22;24934;52.752;6.964;2023-07-31T13:06:34;18.20;99.90
39219;DHT22;24934;52.752;6.964;2023-07-31T13:08:59;18.00;99.90
39219;DHT22;24934;52.752;6.964;2023-07-31T13:11:25;18.10;99.90
39219;DHT22;24934;52.752;6.964;2023-07-31T13:13:51;18.20;99.90
39219;DHT22;24934;52.752;6.964;2023-07-31T13:16:17;18.30;99.90
39219;DHT22;24934;52.752;6.964;2023-07-31T13:18:42;18.40;99.90
39219;DHT22;24934;52.752;6.964;2023-07-31T13:21:08;18.30;99.90
39219;DHT22;24934;52.752;6.964;2023-07-31T13:23:33;18.40;99.90
39219;DHT22;24934;52.752;6.964;2023-07-31T13:25:59;18.50;99.90
39219;DHT22;24934;52.752;6.964;2023-07-31T13:28:24;18.60;99.90
39219;DHT22;24934;52.752;6.964;2023-07-31T13:30:50;18.60;99.90
39219;DHT22;24934;52.752;6.964;2023-07-31T13:33:15;18.60;99.90
39219;DHT22;24934;52.752;6.964;2023-07-31T13:35:41;18.60;99.90
39219;DHT22;24934;52.752;6.964;2023-07-31T13:38:07;18.60;99.90
39219;DHT22;24934;52.752;6.964;2023-07-31T13:40:32;18.70;99.90
39219;DHT22;24934;52.752;6.964;2023-07-31T13:42:58;18.60;99.90
39219;DHT22;24934;52.752;6.964;2023-07-31T13:45:24;18.50;99.90
39219;DHT22;24934;52.752;6.964;2023-07-31T13:47:50;18.50;99.90
39219;DHT22;24934;52.752;6.964;2023-07-31T13:50:16;18.40;99.90
39219;DHT22;24934;52.752;6.964;2023-07-31T13:52:44;18.40;99.90
39219;DHT22;24934;52.752;6.964;2023-07-31T13:55:10;18.40;99.90
39219;DHT22;24934;52.752;6.964;2023-07-31T13:57:35;18.30;99.90
39219;DHT22;24934;52.752;6.964;2023-07-31T14:00:01;18.30;99.90
39219;DHT22;24934;52.752;6.964;2023-07-31T14:02:27;18.30;99.90
39219;DHT22;24934;52.752;6.964;2023-07-31T14:04:53;18.40;99.90
39219;DHT22;24934;52.752;6.964;2023-07-31T14:07:18;18.40;99.90
39219;DHT22;24934;52.752;6.964;2023-07-31T14:09:44;18.60;99.90
39219;DHT22;24934;52.752;6.964;2023-07-31T14:12:10;18.70;99.90
39219;DHT22;24934;52.752;6.964;2023-07-31T14:14:35;18.90;99.90
39219;DHT22;24934;52.752;6.964;2023-07-31T14:17:01;19.00;99.90
39219;DHT22;24934;52.752;6.964;2023-07-31T14:19:27;19.00;99.90
39219;DHT22;24934;52.752;6.964;2023-07-31T14:21:53;19.10;99.90
39219;DHT22;24934;52.752;6.964;2023-07-31T14:24:19;19.00;99.90
39219;DHT22;24934;52.752;6.964;2023-07-31T14:26:44;19.00;99.90
39219;DHT22;24934;52.752;6.964;2023-07-31T14:29:10;19.10;99.90
39219;DHT22;24934;52.752;6.964;2023-07-31T14:31:36;19.00;99.90
39219;DHT22;24934;52.752;6.964;2023-07-31T14:34:01;19.10;99.90
39219;DHT22;24934;52.752;6.964;2023-07-31T14:36:27;19.00;99.90
39219;DHT22;24934;52.752;6.964;2023-07-31T14:38:52;19.00;99.90
39219;DHT22;24934;52.752;6.964;2023-07-31T14:41:18;19.10;99.90
39219;DHT22;24934;52.752;6.964;2023-07-31T14:43:47;19.10;99.90
39219;DHT22;24934;52.752;6.964;2023-07-31T14:46:12;19.10;99.90
39219;DHT22;24934;52.752;6.964;2023-07-31T14:48:38;19.10;99.90
39219;DHT22;24934;52.752;6.964;2023-07-31T14:51:04;19.20;99.90
39219;DHT22;24934;52.752;6.964;2023-07-31T14:53:29;19.20;99.90
39219;DHT22;24934;52.752;6.964;2023-07-31T14:55:55;19.20;99.90
39219;DHT22;24934;52.752;6.964;2023-07-31T14:58:21;19.30;99.90
39219;DHT22;24934;52.752;6.964;2023-07-31T15:00:46;19.30;99.90
39219;DHT22;24934;52.752;6.964;2023-07-31T15:03:12;19.20;99.90
39219;DHT22;24934;52.752;6.964;2023-07-31T15:05:38;19.30;99.90
39219;DHT22;24934;52.752;6.964;2023-07-31T15:08:03;19.40;99.90
39219;DHT22;24934;52.752;6.964;2023-07-31T15:10:29;19.50;99.90
39219;DHT22;24934;52.752;6.964;2023-07-31T15:12:54;19.50;99.90
39219;DHT22;24934;52.752;6.964;2023-07-31T15:15:20;19.50;99.90
39219;DHT22;24934;52.752;6.964;2023-07-31T15:17:46;19.30;99.90
39219;DHT22;24934;52.752;6.964;2023-07-31T15:20:11;19.30;99.90
39219;DHT22;24934;52.752;6.964;2023-07-31T15:22:38;19.20;99.90
39219;DHT22;24934;52.752;6.964;2023-07-31T15:25:03;19.10;99.90
39219;DHT22;24934;52.752;6.964;2023-07-31T15:27:29;19.00;99.90
39219;DHT22;24934;52.752;6.964;2023-07-31T15:29:55;18.90;99.90
39219;DHT22;24934;52.752;6.964;2023-07-31T15:32:21;18.80;99.90
39219;DHT22;24934;52.752;6.964;2023-07-31T15:34:47;18.60;99.90
39219;DHT22;24934;52.752;6.964;2023-07-31T15:37:13;18.50;99.90
39219;DHT22;24934;52.752;6.964;2023-07-31T15:39:39;18.50;99.90